sensor_id;sensor_type;location;lat;lon;timestamp;P1;durP1;ratioP1;P2;durP2;ratioP2
6111;SDS011;3086;48.802;9.394;2023-04-28T00:02:36;6.03;;;3.83;;
6111;SDS011;3086;48.802;9.394;2023-04-28T00:05:57;4.27;;;3.87;;
6111;SDS011;3086;48.802;9.394;2023-04-28T00:09:19;10.70;;;3.83;;
6111;SDS011;3086;48.802;9.394;2023-04-28T00:12:42;4.23;;;3.80;;
6111;SDS011;3086;48.802;9.394;2023-04-28T00:16:04;4.83;;;3.53;;
6111;SDS011;3086;48.802;9.394;2023-04-28T00:19:26;4.70;;;4.00;;
6111;SDS011;3086;48.802;9.394;2023-04-28T00:22:48;5.43;;;3.50;;
6111;SDS011;3086;48.802;9.394;2023-04-28T00:26:09;5.17;;;3.70;;
6111;SDS011;3086;48.802;9.394;2023-04-28T00:29:32;9.70;;;4.50;;
6111;SDS011;3086;48.802;9.394;2023-04-28T00:32:54;4.07;;;3.67;;
6111;SDS011;3086;48.802;9.394;2023-04-28T00:36:15;4.23;;;3.70;;
6111;SDS011;3086;48.802;9.394;2023-04-28T00:39:37;5.53;;;3.80;;
6111;SDS011;3086;48.802;9.394;2023-04-28T00:43:00;3.90;;;3.60;;
6111;SDS011;3086;48.802;9.394;2023-04-28T00:46:24;5.40;;;3.53;;
6111;SDS011;3086;48.802;9.394;2023-04-28T00:49:47;5.47;;;3.60;;
6111;SDS011;3086;48.802;9.394;2023-04-28T00:53:09;3.80;;;3.50;;
6111;SDS011;3086;48.802;9.394;2023-04-28T00:56:30;8.00;;;3.93;;
6111;SDS011;3086;48.802;9.394;2023-04-28T00:59:52;4.13;;;3.43;;
6111;SDS011;3086;48.802;9.394;2023-04-28T01:03:15;6.97;;;4.20;;
6111;SDS011;3086;48.802;9.394;2023-04-28T01:06:37;3.73;;;3.43;;
6111;SDS011;3086;48.802;9.394;2023-04-28T01:09:58;5.83;;;3.70;;
6111;SDS011;3086;48.802;9.394;2023-04-28T01:13:20;3.80;;;3.50;;
6111;SDS011;3086;48.802;9.394;2023-04-28T01:16:41;5.00;;;4.00;;
6111;SDS011;3086;48.802;9.394;2023-04-28T01:20:05;4.47;;;4.07;;
6111;SDS011;3086;48.802;9.394;2023-04-28T01:23:27;6.53;;;4.77;;
6111;SDS011;3086;48.802;9.394;2023-04-28T01:26:51;5.33;;;4.00;;
6111;SDS011;3086;48.802;9.394;2023-04-28T01:30:12;5.80;;;4.07;;
6111;SDS011;3086;48.802;9.394;2023-04-28T01:33:34;6.13;;;4.60;;
6111;SDS011;3086;48.802;9.394;2023-04-28T01:36:55;7.87;;;4.57;;
6111;SDS011;3086;48.802;9.394;2023-04-28T01:40:17;4.77;;;4.37;;
6111;SDS011;3086;48.802;9.394;2023-04-28T01:43:40;7.30;;;5.00;;
6111;SDS011;3086;48.802;9.394;2023-04-28T01:47:02;5.20;;;4.63;;
6111;SDS011;3086;48.802;9.394;2023-04-28T01:50:24;4.77;;;4.30;;
6111;SDS011;3086;48.802;9.394;2023-04-28T01:53:46;8.33;;;4.80;;
6111;SDS011;3086;48.802;9.394;2023-04-28T01:57:07;7.43;;;4.83;;
6111;SDS011;3086;48.802;9.394;2023-04-28T02:00:30;5.60;;;4.33;;
6111;SDS011;3086;48.802;9.394;2023-04-28T02:03:53;7.73;;;4.30;;
6111;SDS011;3086;48.802;9.394;2023-04-28T02:07:15;5.50;;;4.07;;
6111;SDS011;3086;48.802;9.394;2023-04-28T02:10:36;5.80;;;4.13;;
6111;SDS011;3086;48.802;9.394;2023-04-28T02:13:58;7.60;;;4.37;;
6111;SDS011;3086;48.802;9.394;2023-04-28T02:17:21;8.13;;;4.43;;
6111;SDS011;3086;48.802;9.394;2023-04-28T02:20:42;4.90;;;4.30;;
6111;SDS011;3086;48.802;9.394;2023-04-28T02:24:04;8.77;;;4.60;;
6111;SDS011;3086;48.802;9.394;2023-04-28T02:27:27;6.20;;;4.23;;
6111;SDS011;3086;48.802;9.394;2023-04-28T02:30:48;5.50;;;3.90;;
6111;SDS011;3086;48.802;9.394;2023-04-28T02:34:11;6.00;;;4.50;;
6111;SDS011;3086;48.802;9.394;2023-04-28T02:37:34;4.87;;;4.10;;
6111;SDS011;3086;48.802;9.394;2023-04-28T02:40:58;5.47;;;4.20;;
6111;SDS011;3086;48.802;9.394;2023-04-28T02:44:20;4.23;;;3.93;;
6111;SDS011;3086;48.802;9.394;2023-04-28T02:47:41;5.03;;;3.77;;
6111;SDS011;3086;48.802;9.394;2023-04-28T02:51:04;5.37;;;4.13;;
6111;SDS011;3086;48.802;9.394;2023-04-28T02:54:26;4.50;;;3.87;;
6111;SDS011;3086;48.802;9.394;2023-04-28T02:57:47;5.20;;;3.80;;
6111;SDS011;3086;48.802;9.394;2023-04-28T03:01:09;10.40;;;3.93;;
6111;SDS011;3086;48.802;9.394;2023-04-28T03:04:30;5.53;;;3.77;;
6111;SDS011;3086;48.802;9.394;2023-04-28T03:07:53;4.03;;;3.47;;
6111;SDS011;3086;48.802;9.394;2023-04-28T03:11:15;4.23;;;3.83;;
6111;SDS011;3086;48.802;9.394;2023-04-28T03:14:36;5.13;;;3.70;;
6111;SDS011;3086;48.802;9.394;2023-04-28T03:17:58;5.60;;;3.70;;
6111;SDS011;3086;48.802;9.394;2023-04-28T03:21:19;4.80;;;3.47;;
6111;SDS011;3086;48.802;9.394;2023-04-28T03:24:42;4.53;;;4.13;;
6111;SDS011;3086;48.802;9.394;2023-04-28T03:28:04;4.97;;;4.10;;
6111;SDS011;3086;48.802;9.394;2023-04-28T03:31:25;6.33;;;4.13;;
6111;SDS011;3086;48.802;9.394;2023-04-28T03:34:47;4.40;;;3.63;;
6111;SDS011;3086;48.802;9.394;2023-04-28T03:38:08;4.33;;;3.90;;
6111;SDS011;3086;48.802;9.394;2023-04-28T03:41:31;4.43;;;4.03;;
6111;SDS011;3086;48.802;9.394;2023-04-28T03:44:52;4.83;;;4.10;;
6111;SDS011;3086;48.802;9.394;2023-04-28T03:48:14;5.23;;;4.67;;
6111;SDS011;3086;48.802;9.394;2023-04-28T03:51:35;7.30;;;4.97;;
6111;SDS011;3086;48.802;9.394;2023-04-28T03:54:57;4.93;;;4.43;;
6111;SDS011;3086;48.802;9.394;2023-04-28T03:58:20;4.20;;;3.90;;
6111;SDS011;3086;48.802;9.394;2023-04-28T04:01:41;6.17;;;3.90;;
6111;SDS011;3086;48.802;9.394;2023-04-28T04:05:03;5.20;;;4.20;;
6111;SDS011;3086;48.802;9.394;2023-04-28T04:08:25;6.27;;;4.70;;
6111;SDS011;3086;48.802;9.394;2023-04-28T04:11:47;6.27;;;3.87;;
6111;SDS011;3086;48.802;9.394;2023-04-28T04:15:10;5.03;;;4.50;;
6111;SDS011;3086;48.802;9.394;2023-04-28T04:18:32;7.20;;;4.73;;
6111;SDS011;3086;48.802;9.394;2023-04-28T04:21:53;5.20;;;4.60;;
6111;SDS011;3086;48.802;9.394;2023-04-28T04:25:15;5.10;;;4.60;;
6111;SDS011;3086;48.802;9.394;2023-04-28T04:28:37;6.63;;;4.60;;
6111;SDS011;3086;48.802;9.394;2023-04-28T04:31:59;4.53;;;4.13;;
6111;SDS011;3086;48.802;9.394;2023-04-28T04:35:21;5.07;;;4.53;;
6111;SDS011;3086;48.802;9.394;2023-04-28T04:38:43;5.73;;;4.30;;
6111;SDS011;3086;48.802;9.394;2023-04-28T04:42:04;7.97;;;4.97;;
6111;SDS011;3086;48.802;9.394;2023-04-28T04:45:26;4.57;;;4.03;;
6111;SDS011;3086;48.802;9.394;2023-04-28T04:48:49;6.33;;;4.93;;
6111;SDS011;3086;48.802;9.394;2023-04-28T04:52:11;6.90;;;4.80;;
6111;SDS011;3086;48.802;9.394;2023-04-28T04:55:32;6.70;;;4.80;;
6111;SDS011;3086;48.802;9.394;2023-04-28T04:58:54;5.57;;;4.80;;
6111;SDS011;3086;48.802;9.394;2023-04-28T05:02:16;6.87;;;4.37;;
6111;SDS011;3086;48.802;9.394;2023-04-28T05:05:39;5.50;;;4.87;;
6111;SDS011;3086;48.802;9.394;2023-04-28T05:09:01;5.23;;;4.73;;
6111;SDS011;3086;48.802;9.394;2023-04-28T05:12:22;6.70;;;4.80;;
6111;SDS011;3086;48.802;9.394;2023-04-28T05:15:44;4.90;;;4.50;;
6111;SDS011;3086;48.802;9.394;2023-04-28T05:19:05;6.17;;;4.87;;
6111;SDS011;3086;48.802;9.394;2023-04-28T05:22:28;6.07;;;4.97;;
6111;SDS011;3086;48.802;9.394;2023-04-28T05:25:50;5.30;;;4.80;;
6111;SDS011;3086;48.802;9.394;2023-04-28T05:29:12;6.77;;;5.13;;
6111;SDS011;3086;48.802;9.394;2023-04-28T05:32:34;5.37;;;4.77;;
6111;SDS011;3086;48.802;9.394;2023-04-28T05:35:55;5.80;;;4.73;;
6111;SDS011;3086;48.802;9.394;2023-04-28T05:39:18;6.20;;;4.87;;
6111;SDS011;3086;48.802;9.394;2023-04-28T05:42:40;5.67;;;5.03;;
6111;SDS011;3086;48.802;9.394;2023-04-28T05:46:02;4.80;;;4.40;;
6111;SDS011;3086;48.802;9.394;2023-04-28T05:49:24;3.80;;;3.50;;
6111;SDS011;3086;48.802;9.394;2023-04-28T05:52:46;4.33;;;3.93;;
6111;SDS011;3086;48.802;9.394;2023-04-28T05:56:09;4.40;;;4.00;;
6111;SDS011;3086;48.802;9.394;2023-04-28T05:59:30;7.83;;;4.50;;
6111;SDS011;3086;48.802;9.394;2023-04-28T06:02:52;7.37;;;4.50;;
6111;SDS011;3086;48.802;9.394;2023-04-28T06:06:13;5.77;;;4.20;;
6111;SDS011;3086;48.802;9.394;2023-04-28T06:09:35;5.60;;;4.53;;
6111;SDS011;3086;48.802;9.394;2023-04-28T06:12:58;4.73;;;4.20;;
6111;SDS011;3086;48.802;9.394;2023-04-28T06:16:20;6.37;;;4.93;;
6111;SDS011;3086;48.802;9.394;2023-04-28T06:19:42;6.00;;;4.70;;
6111;SDS011;3086;48.802;9.394;2023-04-28T06:23:03;5.17;;;4.50;;
6111;SDS011;3086;48.802;9.394;2023-04-28T06:26:25;4.97;;;4.43;;
6111;SDS011;3086;48.802;9.394;2023-04-28T06:29:48;5.80;;;4.77;;
6111;SDS011;3086;48.802;9.394;2023-04-28T06:33:10;4.77;;;4.37;;
6111;SDS011;3086;48.802;9.394;2023-04-28T06:36:31;6.53;;;4.93;;
6111;SDS011;3086;48.802;9.394;2023-04-28T06:39:53;5.43;;;4.80;;
6111;SDS011;3086;48.802;9.394;2023-04-28T06:43:14;6.10;;;5.50;;
6111;SDS011;3086;48.802;9.394;2023-04-28T06:46:37;6.83;;;5.40;;
6111;SDS011;3086;48.802;9.394;2023-04-28T06:49:59;5.07;;;4.67;;
6111;SDS011;3086;48.802;9.394;2023-04-28T06:53:21;6.40;;;5.23;;
6111;SDS011;3086;48.802;9.394;2023-04-28T06:56:43;7.07;;;5.10;;
6111;SDS011;3086;48.802;9.394;2023-04-28T07:00:05;5.60;;;4.70;;
6111;SDS011;3086;48.802;9.394;2023-04-28T07:03:29;4.50;;;4.10;;
6111;SDS011;3086;48.802;9.394;2023-04-28T07:06:50;7.00;;;4.73;;
6111;SDS011;3086;48.802;9.394;2023-04-28T07:10:12;4.83;;;4.30;;
6111;SDS011;3086;48.802;9.394;2023-04-28T07:13:34;4.70;;;4.30;;
6111;SDS011;3086;48.802;9.394;2023-04-28T07:16:56;4.53;;;4.13;;
6111;SDS011;3086;48.802;9.394;2023-04-28T07:20:19;6.83;;;4.50;;
6111;SDS011;3086;48.802;9.394;2023-04-28T07:23:40;4.60;;;4.07;;
6111;SDS011;3086;48.802;9.394;2023-04-28T07:27:02;4.13;;;3.83;;
6111;SDS011;3086;48.802;9.394;2023-04-28T07:30:24;3.97;;;3.67;;
6111;SDS011;3086;48.802;9.394;2023-04-28T07:33:45;5.00;;;4.00;;
6111;SDS011;3086;48.802;9.394;2023-04-28T07:37:08;4.77;;;4.03;;
6111;SDS011;3086;48.802;9.394;2023-04-28T07:40:30;3.97;;;3.57;;
6111;SDS011;3086;48.802;9.394;2023-04-28T07:43:52;4.60;;;4.20;;
6111;SDS011;3086;48.802;9.394;2023-04-28T07:47:14;4.47;;;4.10;;
6111;SDS011;3086;48.802;9.394;2023-04-28T07:50:36;5.03;;;4.40;;
6111;SDS011;3086;48.802;9.394;2023-04-28T07:53:58;4.87;;;4.03;;
6111;SDS011;3086;48.802;9.394;2023-04-28T07:57:20;3.80;;;3.50;;
6111;SDS011;3086;48.802;9.394;2023-04-28T08:00:41;3.87;;;3.57;;
6111;SDS011;3086;48.802;9.394;2023-04-28T08:04:03;5.37;;;3.53;;
6111;SDS011;3086;48.802;9.394;2023-04-28T08:07:25;6.43;;;4.30;;
6111;SDS011;3086;48.802;9.394;2023-04-28T08:10:48;4.33;;;3.73;;
6111;SDS011;3086;48.802;9.394;2023-04-28T08:14:09;5.03;;;4.53;;
6111;SDS011;3086;48.802;9.394;2023-04-28T08:17:31;6.10;;;5.40;;
6111;SDS011;3086;48.802;9.394;2023-04-28T08:20:52;6.33;;;5.40;;
6111;SDS011;3086;48.802;9.394;2023-04-28T08:24:14;7.37;;;6.10;;
6111;SDS011;3086;48.802;9.394;2023-04-28T08:27:37;6.90;;;5.60;;
6111;SDS011;3086;48.802;9.394;2023-04-28T08:30:59;7.23;;;6.00;;
6111;SDS011;3086;48.802;9.394;2023-04-28T08:34:20;7.03;;;5.47;;
6111;SDS011;3086;48.802;9.394;2023-04-28T08:37:42;5.97;;;5.30;;
6111;SDS011;3086;48.802;9.394;2023-04-28T08:41:04;6.13;;;5.53;;
6111;SDS011;3086;48.802;9.394;2023-04-28T08:44:27;8.53;;;6.83;;
6111;SDS011;3086;48.802;9.394;2023-04-28T08:47:48;8.97;;;5.90;;
6111;SDS011;3086;48.802;9.394;2023-04-28T08:51:12;6.37;;;5.77;;
6111;SDS011;3086;48.802;9.394;2023-04-28T08:54:35;8.33;;;5.73;;
6111;SDS011;3086;48.802;9.394;2023-04-28T08:57:58;7.70;;;6.80;;
6111;SDS011;3086;48.802;9.394;2023-04-28T09:01:22;4.77;;;4.30;;
6111;SDS011;3086;48.802;9.394;2023-04-28T09:04:44;4.43;;;4.03;;
6111;SDS011;3086;48.802;9.394;2023-04-28T09:08:07;6.03;;;5.53;;
6111;SDS011;3086;48.802;9.394;2023-04-28T09:11:30;5.37;;;4.93;;
6111;SDS011;3086;48.802;9.394;2023-04-28T09:14:52;4.70;;;4.30;;
6111;SDS011;3086;48.802;9.394;2023-04-28T09:18:19;7.43;;;6.23;;
6111;SDS011;3086;48.802;9.394;2023-04-28T09:21:48;5.60;;;4.80;;
6111;SDS011;3086;48.802;9.394;2023-04-28T09:25:10;4.77;;;4.30;;
6111;SDS011;3086;48.802;9.394;2023-04-28T09:28:32;5.90;;;4.10;;
6111;SDS011;3086;48.802;9.394;2023-04-28T09:32:01;5.57;;;3.73;;
6111;SDS011;3086;48.802;9.394;2023-04-28T09:35:39;4.87;;;4.47;;
6111;SDS011;3086;48.802;9.394;2023-04-28T09:39:01;5.80;;;5.07;;
6111;SDS011;3086;48.802;9.394;2023-04-28T09:42:29;5.60;;;5.00;;
6111;SDS011;3086;48.802;9.394;2023-04-28T09:45:52;5.03;;;4.63;;
6111;SDS011;3086;48.802;9.394;2023-04-28T09:49:14;6.23;;;5.60;;
6111;SDS011;3086;48.802;9.394;2023-04-28T09:52:37;6.83;;;6.13;;
6111;SDS011;3086;48.802;9.394;2023-04-28T09:55:59;6.87;;;6.20;;
6111;SDS011;3086;48.802;9.394;2023-04-28T09:59:22;5.30;;;4.67;;
6111;SDS011;3086;48.802;9.394;2023-04-28T10:02:44;6.17;;;5.00;;
6111;SDS011;3086;48.802;9.394;2023-04-28T10:06:05;6.83;;;5.50;;
6111;SDS011;3086;48.802;9.394;2023-04-28T10:09:28;6.97;;;6.37;;
6111;SDS011;3086;48.802;9.394;2023-04-28T10:12:51;7.53;;;6.83;;
6111;SDS011;3086;48.802;9.394;2023-04-28T10:16:13;6.63;;;6.03;;
6111;SDS011;3086;48.802;9.394;2023-04-28T10:19:34;6.20;;;5.60;;
6111;SDS011;3086;48.802;9.394;2023-04-28T10:22:58;5.80;;;5.30;;
6111;SDS011;3086;48.802;9.394;2023-04-28T10:30:18;4.67;;;4.27;;
6111;SDS011;3086;48.802;9.394;2023-04-28T10:33:40;6.33;;;4.20;;
6111;SDS011;3086;48.802;9.394;2023-04-28T10:37:02;4.40;;;4.00;;
6111;SDS011;3086;48.802;9.394;2023-04-28T10:40:30;6.47;;;4.83;;
6111;SDS011;3086;48.802;9.394;2023-04-28T10:43:54;4.97;;;4.47;;
6111;SDS011;3086;48.802;9.394;2023-04-28T10:47:15;4.77;;;4.10;;
6111;SDS011;3086;48.802;9.394;2023-04-28T10:50:37;5.80;;;4.47;;
6111;SDS011;3086;48.802;9.394;2023-04-28T10:54:32;4.60;;;4.20;;
6111;SDS011;3086;48.802;9.394;2023-04-28T11:01:50;4.00;;;3.60;;
6111;SDS011;3086;48.802;9.394;2023-04-28T11:05:12;5.57;;;4.30;;
6111;SDS011;3086;48.802;9.394;2023-04-28T11:08:34;5.07;;;4.57;;
6111;SDS011;3086;48.802;9.394;2023-04-28T11:12:05;6.20;;;4.43;;
6111;SDS011;3086;48.802;9.394;2023-04-28T11:15:29;5.30;;;4.40;;
6111;SDS011;3086;48.802;9.394;2023-04-28T11:18:54;7.13;;;4.60;;
6111;SDS011;3086;48.802;9.394;2023-04-28T11:22:18;4.80;;;3.90;;
6111;SDS011;3086;48.802;9.394;2023-04-28T11:29:21;4.57;;;3.60;;
6111;SDS011;3086;48.802;9.394;2023-04-28T11:32:51;4.93;;;3.90;;
6111;SDS011;3086;48.802;9.394;2023-04-28T11:36:26;5.93;;;3.90;;
6111;SDS011;3086;48.802;9.394;2023-04-28T11:39:51;4.20;;;3.80;;
6111;SDS011;3086;48.802;9.394;2023-04-28T11:43:12;6.43;;;4.37;;
6111;SDS011;3086;48.802;9.394;2023-04-28T11:46:34;5.03;;;4.20;;
6111;SDS011;3086;48.802;9.394;2023-04-28T11:49:56;3.37;;;2.77;;
6111;SDS011;3086;48.802;9.394;2023-04-28T11:53:19;2.27;;;2.07;;
6111;SDS011;3086;48.802;9.394;2023-04-28T11:56:42;2.33;;;1.93;;
6111;SDS011;3086;48.802;9.394;2023-04-28T12:00:10;1.93;;;1.77;;
6111;SDS011;3086;48.802;9.394;2023-04-28T12:03:40;2.30;;;1.90;;
6111;SDS011;3086;48.802;9.394;2023-04-28T12:07:03;1.93;;;1.73;;
6111;SDS011;3086;48.802;9.394;2023-04-28T12:10:27;1.93;;;1.60;;
6111;SDS011;3086;48.802;9.394;2023-04-28T12:14:04;2.03;;;1.83;;
6111;SDS011;3086;48.802;9.394;2023-04-28T12:17:27;2.23;;;2.03;;
6111;SDS011;3086;48.802;9.394;2023-04-28T12:20:49;2.90;;;2.03;;
6111;SDS011;3086;48.802;9.394;2023-04-28T12:24:14;1.70;;;1.60;;
6111;SDS011;3086;48.802;9.394;2023-04-28T12:27:38;3.20;;;2.40;;
6111;SDS011;3086;48.802;9.394;2023-04-28T12:31:02;2.50;;;2.30;;
6111;SDS011;3086;48.802;9.394;2023-04-28T12:34:24;4.70;;;2.40;;
6111;SDS011;3086;48.802;9.394;2023-04-28T12:37:46;4.60;;;2.50;;
6111;SDS011;3086;48.802;9.394;2023-04-28T12:41:07;2.93;;;2.40;;
6111;SDS011;3086;48.802;9.394;2023-04-28T12:44:34;3.30;;;2.33;;
6111;SDS011;3086;48.802;9.394;2023-04-28T12:47:56;7.30;;;4.60;;
6111;SDS011;3086;48.802;9.394;2023-04-28T12:51:18;2.57;;;1.60;;
6111;SDS011;3086;48.802;9.394;2023-04-28T12:54:40;1.70;;;1.60;;
6111;SDS011;3086;48.802;9.394;2023-04-28T12:58:06;2.73;;;1.90;;
6111;SDS011;3086;48.802;9.394;2023-04-28T13:01:29;2.30;;;2.07;;
6111;SDS011;3086;48.802;9.394;2023-04-28T13:04:50;1.90;;;1.67;;
6111;SDS011;3086;48.802;9.394;2023-04-28T13:08:12;1.47;;;1.37;;
6111;SDS011;3086;48.802;9.394;2023-04-28T13:11:33;2.33;;;1.37;;
6111;SDS011;3086;48.802;9.394;2023-04-28T13:14:55;1.20;;;1.20;;
6111;SDS011;3086;48.802;9.394;2023-04-28T13:18:18;2.03;;;1.57;;
6111;SDS011;3086;48.802;9.394;2023-04-28T13:21:39;1.10;;;1.10;;
6111;SDS011;3086;48.802;9.394;2023-04-28T13:25:02;1.10;;;1.07;;
6111;SDS011;3086;48.802;9.394;2023-04-28T13:28:23;1.57;;;1.27;;
6111;SDS011;3086;48.802;9.394;2023-04-28T13:31:45;0.97;;;0.97;;
6111;SDS011;3086;48.802;9.394;2023-04-28T13:35:08;1.13;;;1.07;;
6111;SDS011;3086;48.802;9.394;2023-04-28T13:38:30;1.37;;;1.10;;
6111;SDS011;3086;48.802;9.394;2023-04-28T13:41:51;1.53;;;1.07;;
6111;SDS011;3086;48.802;9.394;2023-04-28T13:45:13;0.90;;;0.90;;
6111;SDS011;3086;48.802;9.394;2023-04-28T13:48:35;1.13;;;1.10;;
6111;SDS011;3086;48.802;9.394;2023-04-28T13:51:58;2.33;;;1.17;;
6111;SDS011;3086;48.802;9.394;2023-04-28T13:55:19;1.07;;;1.07;;
6111;SDS011;3086;48.802;9.394;2023-04-28T13:58:46;1.80;;;1.17;;
6111;SDS011;3086;48.802;9.394;2023-04-28T14:02:08;1.23;;;1.13;;
6111;SDS011;3086;48.802;9.394;2023-04-28T14:05:31;1.87;;;1.07;;
6111;SDS011;3086;48.802;9.394;2023-04-28T14:08:54;2.40;;;1.73;;
6111;SDS011;3086;48.802;9.394;2023-04-28T14:12:15;4.50;;;4.10;;
6111;SDS011;3086;48.802;9.394;2023-04-28T14:15:37;2.10;;;1.73;;
6111;SDS011;3086;48.802;9.394;2023-04-28T14:18:59;1.40;;;1.30;;
6111;SDS011;3086;48.802;9.394;2023-04-28T14:22:20;1.60;;;1.50;;
6111;SDS011;3086;48.802;9.394;2023-04-28T14:25:44;1.57;;;1.43;;
6111;SDS011;3086;48.802;9.394;2023-04-28T14:29:05;1.37;;;1.27;;
6111;SDS011;3086;48.802;9.394;2023-04-28T14:32:27;1.33;;;1.20;;
6111;SDS011;3086;48.802;9.394;2023-04-28T14:35:48;1.50;;;1.40;;
6111;SDS011;3086;48.802;9.394;2023-04-28T14:39:10;1.80;;;1.20;;
6111;SDS011;3086;48.802;9.394;2023-04-28T14:42:34;1.57;;;1.30;;
6111;SDS011;3086;48.802;9.394;2023-04-28T14:45:56;2.57;;;1.40;;
6111;SDS011;3086;48.802;9.394;2023-04-28T14:49:17;1.80;;;1.70;;
6111;SDS011;3086;48.802;9.394;2023-04-28T14:52:39;1.83;;;1.73;;
6111;SDS011;3086;48.802;9.394;2023-04-28T14:56:01;1.70;;;1.60;;
6111;SDS011;3086;48.802;9.394;2023-04-28T14:59:25;1.20;;;1.20;;
6111;SDS011;3086;48.802;9.394;2023-04-28T15:02:47;1.63;;;1.13;;
6111;SDS011;3086;48.802;9.394;2023-04-28T15:06:09;1.43;;;1.27;;
6111;SDS011;3086;48.802;9.394;2023-04-28T15:09:30;1.60;;;1.50;;
6111;SDS011;3086;48.802;9.394;2023-04-28T15:12:52;1.83;;;1.10;;
6111;SDS011;3086;48.802;9.394;2023-04-28T15:16:16;1.60;;;1.50;;
6111;SDS011;3086;48.802;9.394;2023-04-28T15:19:37;2.50;;;1.63;;
6111;SDS011;3086;48.802;9.394;2023-04-28T15:22:59;2.03;;;1.60;;
6111;SDS011;3086;48.802;9.394;2023-04-28T15:26:20;2.27;;;1.53;;
6111;SDS011;3086;48.802;9.394;2023-04-28T15:29:42;2.43;;;1.43;;
6111;SDS011;3086;48.802;9.394;2023-04-28T15:33:05;1.60;;;1.50;;
6111;SDS011;3086;48.802;9.394;2023-04-28T15:36:27;1.77;;;1.67;;
6111;SDS011;3086;48.802;9.394;2023-04-28T15:39:48;1.60;;;1.50;;
6111;SDS011;3086;48.802;9.394;2023-04-28T15:43:10;1.73;;;1.47;;
6111;SDS011;3086;48.802;9.394;2023-04-28T15:46:32;2.33;;;1.93;;
6111;SDS011;3086;48.802;9.394;2023-04-28T15:49:57;2.83;;;1.80;;
6111;SDS011;3086;48.802;9.394;2023-04-28T15:53:19;1.50;;;1.40;;
6111;SDS011;3086;48.802;9.394;2023-04-28T15:56:41;2.00;;;1.90;;
6111;SDS011;3086;48.802;9.394;2023-04-28T16:00:03;1.37;;;1.27;;
6111;SDS011;3086;48.802;9.394;2023-04-28T16:03:26;1.57;;;1.30;;
6111;SDS011;3086;48.802;9.394;2023-04-28T16:06:49;1.30;;;1.20;;
6111;SDS011;3086;48.802;9.394;2023-04-28T16:10:12;2.47;;;1.40;;
6111;SDS011;3086;48.802;9.394;2023-04-28T16:13:50;1.67;;;1.10;;
6111;SDS011;3086;48.802;9.394;2023-04-28T16:17:11;1.07;;;1.07;;
6111;SDS011;3086;48.802;9.394;2023-04-28T16:20:33;1.13;;;1.10;;
6111;SDS011;3086;48.802;9.394;2023-04-28T16:23:56;1.37;;;1.10;;
6111;SDS011;3086;48.802;9.394;2023-04-28T16:27:17;1.23;;;1.13;;
6111;SDS011;3086;48.802;9.394;2023-04-28T16:30:39;1.40;;;1.30;;
6111;SDS011;3086;48.802;9.394;2023-04-28T16:34:00;2.07;;;1.50;;
6111;SDS011;3086;48.802;9.394;2023-04-28T16:37:22;2.00;;;1.80;;
6111;SDS011;3086;48.802;9.394;2023-04-28T16:40:45;1.13;;;1.03;;
6111;SDS011;3086;48.802;9.394;2023-04-28T16:44:07;1.70;;;1.50;;
6111;SDS011;3086;48.802;9.394;2023-04-28T16:47:29;1.87;;;1.77;;
6111;SDS011;3086;48.802;9.394;2023-04-28T16:50:52;1.43;;;1.33;;
6111;SDS011;3086;48.802;9.394;2023-04-28T16:54:14;1.97;;;1.60;;
6111;SDS011;3086;48.802;9.394;2023-04-28T16:57:36;3.13;;;1.60;;
6111;SDS011;3086;48.802;9.394;2023-04-28T17:00:58;1.60;;;1.50;;
6111;SDS011;3086;48.802;9.394;2023-04-28T17:04:20;1.50;;;1.40;;
6111;SDS011;3086;48.802;9.394;2023-04-28T17:07:42;1.60;;;1.50;;
6111;SDS011;3086;48.802;9.394;2023-04-28T17:11:05;2.03;;;1.70;;
6111;SDS011;3086;48.802;9.394;2023-04-28T17:14:28;1.87;;;1.73;;
6111;SDS011;3086;48.802;9.394;2023-04-28T17:17:49;3.97;;;2.10;;
6111;SDS011;3086;48.802;9.394;2023-04-28T17:21:13;4.40;;;2.00;;
6111;SDS011;3086;48.802;9.394;2023-04-28T17:24:35;2.40;;;1.90;;
6111;SDS011;3086;48.802;9.394;2023-04-28T17:27:57;2.37;;;1.93;;
6111;SDS011;3086;48.802;9.394;2023-04-28T17:31:20;2.17;;;1.77;;
6111;SDS011;3086;48.802;9.394;2023-04-28T17:34:42;3.77;;;1.93;;
6111;SDS011;3086;48.802;9.394;2023-04-28T17:38:03;2.60;;;2.00;;
6111;SDS011;3086;48.802;9.394;2023-04-28T17:41:25;2.00;;;1.77;;
6111;SDS011;3086;48.802;9.394;2023-04-28T17:44:47;2.23;;;2.03;;
6111;SDS011;3086;48.802;9.394;2023-04-28T17:48:09;2.33;;;1.90;;
6111;SDS011;3086;48.802;9.394;2023-04-28T17:51:31;3.10;;;2.03;;
6111;SDS011;3086;48.802;9.394;2023-04-28T17:54:53;3.50;;;2.30;;
6111;SDS011;3086;48.802;9.394;2023-04-28T17:58:16;3.03;;;2.17;;
6111;SDS011;3086;48.802;9.394;2023-04-28T18:01:38;3.77;;;2.20;;
6111;SDS011;3086;48.802;9.394;2023-04-28T18:05:01;9.23;;;7.83;;
6111;SDS011;3086;48.802;9.394;2023-04-28T18:08:22;4.23;;;3.27;;
6111;SDS011;3086;48.802;9.394;2023-04-28T18:11:44;3.47;;;2.97;;
6111;SDS011;3086;48.802;9.394;2023-04-28T18:15:06;3.60;;;2.37;;
6111;SDS011;3086;48.802;9.394;2023-04-28T18:18:28;1.80;;;1.70;;
6111;SDS011;3086;48.802;9.394;2023-04-28T18:21:53;2.70;;;1.97;;
6111;SDS011;3086;48.802;9.394;2023-04-28T18:25:16;3.53;;;2.40;;
6111;SDS011;3086;48.802;9.394;2023-04-28T18:28:38;4.13;;;2.40;;
6111;SDS011;3086;48.802;9.394;2023-04-28T18:31:59;3.10;;;2.50;;
6111;SDS011;3086;48.802;9.394;2023-04-28T18:35:21;5.13;;;3.23;;
6111;SDS011;3086;48.802;9.394;2023-04-28T18:38:44;3.93;;;3.30;;
6111;SDS011;3086;48.802;9.394;2023-04-28T18:42:05;3.13;;;2.83;;
6111;SDS011;3086;48.802;9.394;2023-04-28T18:45:30;4.93;;;2.73;;
6111;SDS011;3086;48.802;9.394;2023-04-28T18:48:53;2.60;;;2.40;;
6111;SDS011;3086;48.802;9.394;2023-04-28T18:52:15;3.77;;;2.97;;
6111;SDS011;3086;48.802;9.394;2023-04-28T18:55:37;4.53;;;3.13;;
6111;SDS011;3086;48.802;9.394;2023-04-28T18:58:59;4.67;;;4.27;;
6111;SDS011;3086;48.802;9.394;2023-04-28T19:02:21;5.30;;;4.80;;
6111;SDS011;3086;48.802;9.394;2023-04-28T19:05:42;5.23;;;4.80;;
6111;SDS011;3086;48.802;9.394;2023-04-28T19:09:04;6.67;;;5.17;;
6111;SDS011;3086;48.802;9.394;2023-04-28T19:12:27;8.70;;;6.83;;
6111;SDS011;3086;48.802;9.394;2023-04-28T19:15:50;8.70;;;6.10;;
6111;SDS011;3086;48.802;9.394;2023-04-28T19:19:12;4.87;;;4.47;;
6111;SDS011;3086;48.802;9.394;2023-04-28T19:22:50;65.10;;;8.53;;
6111;SDS011;3086;48.802;9.394;2023-04-28T19:26:11;10.40;;;5.57;;
6111;SDS011;3086;48.802;9.394;2023-04-28T19:29:34;10.60;;;6.30;;
6111;SDS011;3086;48.802;9.394;2023-04-28T19:32:56;6.63;;;5.33;;
6111;SDS011;3086;48.802;9.394;2023-04-28T19:36:17;7.70;;;5.37;;
6111;SDS011;3086;48.802;9.394;2023-04-28T19:39:39;6.70;;;4.17;;
6111;SDS011;3086;48.802;9.394;2023-04-28T19:43:00;8.10;;;4.00;;
6111;SDS011;3086;48.802;9.394;2023-04-28T19:46:26;5.40;;;4.00;;
6111;SDS011;3086;48.802;9.394;2023-04-28T19:49:48;6.43;;;4.63;;
6111;SDS011;3086;48.802;9.394;2023-04-28T19:53:15;6.30;;;4.10;;
6111;SDS011;3086;48.802;9.394;2023-04-28T19:56:38;4.63;;;4.23;;
6111;SDS011;3086;48.802;9.394;2023-04-28T19:59:59;4.70;;;4.20;;
6111;SDS011;3086;48.802;9.394;2023-04-28T20:03:22;5.90;;;4.40;;
6111;SDS011;3086;48.802;9.394;2023-04-28T20:06:43;7.53;;;4.63;;
6111;SDS011;3086;48.802;9.394;2023-04-28T20:10:05;4.50;;;4.10;;
6111;SDS011;3086;48.802;9.394;2023-04-28T20:13:28;4.17;;;3.67;;
6111;SDS011;3086;48.802;9.394;2023-04-28T20:16:50;4.60;;;4.00;;
6111;SDS011;3086;48.802;9.394;2023-04-28T20:20:13;4.47;;;4.07;;
6111;SDS011;3086;48.802;9.394;2023-04-28T20:23:34;6.67;;;3.80;;
6111;SDS011;3086;48.802;9.394;2023-04-28T20:26:56;6.50;;;4.43;;
6111;SDS011;3086;48.802;9.394;2023-04-28T20:30:18;4.53;;;3.90;;
6111;SDS011;3086;48.802;9.394;2023-04-28T20:33:41;4.60;;;4.07;;
6111;SDS011;3086;48.802;9.394;2023-04-28T20:37:03;3.87;;;3.47;;
6111;SDS011;3086;48.802;9.394;2023-04-28T20:40:27;4.83;;;3.77;;
6111;SDS011;3086;48.802;9.394;2023-04-28T20:43:48;4.23;;;3.90;;
6111;SDS011;3086;48.802;9.394;2023-04-28T20:47:11;7.33;;;4.60;;
6111;SDS011;3086;48.802;9.394;2023-04-28T20:50:35;4.90;;;4.17;;
6111;SDS011;3086;48.802;9.394;2023-04-28T20:53:59;4.30;;;3.90;;
6111;SDS011;3086;48.802;9.394;2023-04-28T20:57:23;4.00;;;3.70;;
6111;SDS011;3086;48.802;9.394;2023-04-28T21:00:44;5.73;;;3.87;;
6111;SDS011;3086;48.802;9.394;2023-04-28T21:04:06;4.30;;;3.90;;
6111;SDS011;3086;48.802;9.394;2023-04-28T21:07:27;6.03;;;4.90;;
6111;SDS011;3086;48.802;9.394;2023-04-28T21:10:50;9.73;;;4.73;;